Chisholm Hibbing Airport
KHIB : rendu visible

Aérodrome :











RETROUVEZ-NOUS SUR...

 
LOGIN :

S'inscrire | Disclaimer

   EN    FR    IT 

 









Légende :    VFR   VFR Marginal   IFR   IFR Intensif   IFR Très Intensif
Visi : 
Plafond : 
>= 8 km
>= 3000ft
5 à 8 km
1000 à 3000 ft
1500m à 5 km
500 à 1000 ft
800 à 1500m
200 à 500 ft
< 800m
< 200 ft
Symboles :   Orages  Brouillard  Fortes neiges  Fortes précipitations  Vent > 20 kt






- Altitude de l'aérodrome : 1354 ft
- Code IATA : HIB


KHIB - Chisholm Hibbing

DERNIER METAR :
  • 212253Z AUTO 17009G18KT 9SM CLR M08/M14 A2986 RMK AO2 SLP147 T10831144

METARs EXPIRÉS :
  • 212153Z AUTO 17008G20KT 9SM CLR M08/M14 A2990 RMK AO2 SLP161 T10831144
  • 212053Z AUTO 18013G24KT 9SM CLR M07/M14 A2993 RMK AO2 SLP168 T10721144 56040

TAF KHIB
Valide du 21 à 18h jusqu'au 22 à 18h UTC


211723Z 2118/2218 20011G19KT P6SM SCT250 WS020/23043KT
FM220500 20010G20KT P6SM OVC090
FM220900 20008G16KT P6SM OVC016
FM221300 21005KT P6SM OVC009



MET'MAP, la Météo Aéronautique d'un coup d'oeil ! - Copyright ORBIFLY Décembre 2007 - Disclaimer

ORBIFLY MET'MAP TEAM :

Programmation & Développement : Alexandra Zaïnal
Sur une idée originale de : Baudouin d'Aumeries
Assistance à la programmation : Marc-Olivier Méhu
Soutien technique & logistique : Manuel Goepfert

Contact : metmap@orbifly.com




SOURCES & CREDITS :

   NOAA       Earth
Advisory